createdAt,value
2023-06-29T00:01:11.636Z,10.91
2023-06-29T00:04:00.146Z,10.89
2023-06-29T00:06:28.572Z,10.88
2023-06-29T00:08:56.639Z,10.86
2023-06-29T00:11:24.988Z,10.84
2023-06-29T00:13:52.988Z,10.84
2023-06-29T00:16:20.982Z,10.80
2023-06-29T00:18:50.822Z,10.67
2023-06-29T00:21:18.869Z,10.54
2023-06-29T00:23:47.207Z,10.49
2023-06-29T00:26:15.421Z,10.49
2023-06-29T00:28:43.432Z,10.52
2023-06-29T00:31:11.538Z,10.52
2023-06-29T00:33:39.655Z,10.49
2023-06-29T00:36:07.792Z,10.47
2023-06-29T00:38:35.858Z,10.44
2023-06-29T00:41:04.049Z,10.41
2023-06-29T00:43:32.342Z,10.39
2023-06-29T00:46:00.691Z,10.40
2023-06-29T00:48:28.941Z,10.41
2023-06-29T00:50:57.009Z,10.38
2023-06-29T00:53:25.654Z,10.28
2023-06-29T00:55:54.501Z,10.22
2023-06-29T00:58:22.928Z,10.21
2023-06-29T01:00:51.127Z,10.21
2023-06-29T01:03:19.527Z,10.22
2023-06-29T01:05:48.700Z,10.21
2023-06-29T01:08:26.488Z,10.19
2023-06-29T01:10:55.487Z,10.15
2023-06-29T01:13:24.486Z,10.09
2023-06-29T01:15:53.253Z,10.03
2023-06-29T01:18:22.641Z,9.95
2023-06-29T01:20:51.847Z,9.93
2023-06-29T01:23:38.039Z,9.92
2023-06-29T01:26:06.809Z,9.94
2023-06-29T01:28:39.381Z,9.96
2023-06-29T01:31:12.768Z,9.93
2023-06-29T01:33:41.395Z,9.80
2023-06-29T01:36:27.624Z,9.68
2023-06-29T01:39:06.965Z,9.69
2023-06-29T01:41:41.767Z,9.71
2023-06-29T01:44:15.797Z,9.72
2023-06-29T01:46:45.106Z,9.74
2023-06-29T01:49:14.884Z,9.75
2023-06-29T01:51:42.984Z,9.75
2023-06-29T01:54:11.227Z,9.78
2023-06-29T01:56:39.390Z,9.81
2023-06-29T01:59:07.544Z,9.82
2023-06-29T02:01:35.787Z,9.87
2023-06-29T02:04:04.734Z,9.96
2023-06-29T02:06:33.307Z,9.98
2023-06-29T02:09:01.450Z,9.95
2023-06-29T02:11:29.611Z,9.98
2023-06-29T02:13:57.720Z,10.07
2023-06-29T02:16:25.904Z,10.16
2023-06-29T02:18:53.992Z,10.13
2023-06-29T02:21:22.189Z,10.06
2023-06-29T02:23:50.164Z,9.98
2023-06-29T02:26:18.297Z,9.95
2023-06-29T02:28:46.560Z,9.92
2023-06-29T02:31:16.606Z,9.92
2023-06-29T02:33:46.448Z,9.96
2023-06-29T02:36:16.646Z,9.98
2023-06-29T02:38:47.236Z,9.94
2023-06-29T02:41:15.878Z,9.88
2023-06-29T02:43:44.480Z,9.89
2023-06-29T02:46:12.811Z,9.89
2023-06-29T02:48:41.029Z,9.88
2023-06-29T02:51:10.224Z,9.92
2023-06-29T02:53:38.802Z,9.97
2023-06-29T02:56:06.972Z,9.95
2023-06-29T02:58:35.699Z,9.94
2023-06-29T03:01:04.638Z,9.91
2023-06-29T03:03:32.960Z,9.86
2023-06-29T03:06:02.159Z,9.82
2023-06-29T03:08:31.260Z,9.83
2023-06-29T03:10:59.776Z,9.89
2023-06-29T03:13:28.535Z,9.95
2023-06-29T03:16:00.434Z,10.01
2023-06-29T03:18:28.994Z,10.01
2023-06-29T03:20:58.152Z,10.00
2023-06-29T03:23:26.283Z,9.95
2023-06-29T03:25:54.426Z,9.95
2023-06-29T03:28:22.508Z,9.95
2023-06-29T03:30:50.724Z,9.92
2023-06-29T03:33:18.722Z,9.90
2023-06-29T03:35:47.026Z,9.90
2023-06-29T03:38:15.070Z,9.99
2023-06-29T03:40:43.567Z,10.16
2023-06-29T03:43:11.481Z,10.30
2023-06-29T03:45:39.656Z,10.42
2023-06-29T03:48:07.651Z,10.59
2023-06-29T03:50:35.857Z,10.83
2023-06-29T03:53:04.113Z,10.98
2023-06-29T03:55:32.140Z,11.10
2023-06-29T03:58:00.952Z,11.21
2023-06-29T04:00:29.152Z,11.24
2023-06-29T04:02:57.326Z,11.26
2023-06-29T04:05:28.380Z,11.42
2023-06-29T04:07:56.350Z,11.67
2023-06-29T04:10:24.343Z,11.90
2023-06-29T04:12:52.345Z,12.20
2023-06-29T04:15:20.521Z,12.45
2023-06-29T04:17:48.695Z,12.72
2023-06-29T04:20:16.908Z,13.03
2023-06-29T04:22:45.344Z,13.34
2023-06-29T04:25:13.780Z,13.57
2023-06-29T04:27:43.322Z,13.77
2023-06-29T04:30:12.471Z,14.00
2023-06-29T04:32:40.731Z,14.23
2023-06-29T04:35:10.552Z,14.43
2023-06-29T04:37:42.760Z,14.71
2023-06-29T04:40:11.354Z,15.15
2023-06-29T04:42:46.817Z,15.44
2023-06-29T04:45:20.556Z,15.63
2023-06-29T04:47:52.652Z,15.80
2023-06-29T04:50:27.371Z,15.90
2023-06-29T04:52:57.183Z,16.04
2023-06-29T04:55:25.925Z,16.23
2023-06-29T04:57:54.070Z,16.38
2023-06-29T05:00:22.109Z,16.45
2023-06-29T05:02:50.267Z,16.52
2023-06-29T05:05:19.209Z,16.62
2023-06-29T05:07:47.331Z,16.63
2023-06-29T05:10:15.247Z,16.67
2023-06-29T05:12:43.257Z,16.78
2023-06-29T05:15:11.657Z,17.09
2023-06-29T05:17:39.628Z,17.25
2023-06-29T05:20:09.752Z,17.48
2023-06-29T05:22:37.810Z,17.71
2023-06-29T05:25:06.262Z,17.92
2023-06-29T05:27:35.255Z,18.09
2023-06-29T05:30:04.078Z,18.26
2023-06-29T05:32:34.392Z,18.47
2023-06-29T05:35:02.584Z,18.77
2023-06-29T05:37:31.595Z,19.16
2023-06-29T05:39:59.624Z,19.47
2023-06-29T05:42:27.786Z,19.55
2023-06-29T05:44:56.669Z,19.69
2023-06-29T05:47:24.626Z,19.85
2023-06-29T05:49:54.888Z,19.83
2023-06-29T05:52:23.476Z,19.92
2023-06-29T05:54:51.859Z,20.10
2023-06-29T05:57:19.935Z,20.34
2023-06-29T05:59:47.995Z,20.51
2023-06-29T06:02:16.191Z,20.69
2023-06-29T06:04:44.462Z,20.96
2023-06-29T06:07:16.193Z,21.28
2023-06-29T06:09:44.263Z,21.44
2023-06-29T06:12:12.315Z,21.64
2023-06-29T06:14:40.353Z,21.63
2023-06-29T06:17:08.340Z,21.62
2023-06-29T06:19:36.366Z,21.76
2023-06-29T06:22:04.782Z,21.96
2023-06-29T06:24:32.851Z,22.19
2023-06-29T06:27:02.443Z,22.33
2023-06-29T06:29:30.596Z,22.47
2023-06-29T06:31:58.708Z,22.57
2023-06-29T06:34:31.996Z,22.72
2023-06-29T06:37:00.338Z,22.85
2023-06-29T06:39:28.748Z,22.82
2023-06-29T06:41:57.005Z,22.64
2023-06-29T06:44:25.137Z,22.49
2023-06-29T06:46:53.525Z,22.33
2023-06-29T06:49:21.918Z,22.17
2023-06-29T06:51:50.608Z,21.99
2023-06-29T06:54:20.894Z,22.10
2023-06-29T06:56:50.395Z,22.40
2023-06-29T06:59:18.722Z,22.67
2023-06-29T07:01:51.268Z,22.82
2023-06-29T07:04:19.381Z,22.68
2023-06-29T07:06:47.626Z,22.67
2023-06-29T07:09:16.574Z,22.76
2023-06-29T07:11:44.672Z,22.93
2023-06-29T07:14:13.212Z,23.12
2023-06-29T07:16:41.158Z,23.25
2023-06-29T07:24:06.248Z,23.25
2023-06-29T07:24:33.700Z,23.42
2023-06-29T07:27:01.858Z,23.86
2023-06-29T07:29:31.642Z,24.12
2023-06-29T07:31:59.785Z,24.24
2023-06-29T07:34:28.055Z,24.34
2023-06-29T07:36:56.037Z,24.26
2023-06-29T07:39:24.338Z,24.24
2023-06-29T07:41:52.797Z,24.68
2023-06-29T07:44:20.763Z,25.01
2023-06-29T07:46:48.822Z,25.37
2023-06-29T07:49:17.313Z,25.76
2023-06-29T07:51:45.672Z,25.90
2023-06-29T07:54:14.056Z,25.62
2023-06-29T07:59:13.059Z,25.89
2023-06-29T08:01:41.318Z,25.91
2023-06-29T08:04:10.331Z,25.56
2023-06-29T08:06:50.773Z,25.43
2023-06-29T08:09:21.509Z,25.38
2023-06-29T08:11:49.686Z,25.32
2023-06-29T08:14:17.907Z,25.19
2023-06-29T08:16:46.079Z,24.85
2023-06-29T08:19:16.021Z,24.49
2023-06-29T08:21:44.106Z,24.30
2023-06-29T08:24:12.399Z,23.83
2023-06-29T08:26:40.364Z,23.51
2023-06-29T08:29:08.352Z,23.47
2023-06-29T08:31:36.525Z,23.36
2023-06-29T08:34:04.934Z,23.21
2023-06-29T08:36:34.467Z,23.16
2023-06-29T08:39:02.624Z,23.05
2023-06-29T08:41:30.724Z,23.00
2023-06-29T08:43:59.421Z,22.91
2023-06-29T08:46:29.177Z,22.97
2023-06-29T08:48:57.694Z,22.97
2023-06-29T08:51:28.631Z,22.65
2023-06-29T08:53:57.684Z,22.34
2023-06-29T08:56:26.569Z,22.23
2023-06-29T08:58:56.144Z,22.06
2023-06-29T09:01:24.420Z,21.84
2023-06-29T09:03:52.792Z,21.71
2023-06-29T09:06:21.063Z,21.59
2023-06-29T09:08:49.262Z,21.34
2023-06-29T09:11:17.555Z,21.18
2023-06-29T09:13:47.625Z,21.08
2023-06-29T09:16:19.263Z,21.01
2023-06-29T09:18:55.295Z,21.02
2023-06-29T09:21:24.889Z,21.13
2023-06-29T09:23:57.323Z,21.14
2023-06-29T09:26:29.900Z,21.15
2023-06-29T09:29:02.358Z,21.19
2023-06-29T09:31:34.645Z,21.28
2023-06-29T09:34:28.898Z,21.38
2023-06-29T09:36:57.447Z,21.49
2023-06-29T09:39:26.618Z,21.59
2023-06-29T09:41:57.314Z,21.67
2023-06-29T09:44:26.481Z,21.82
2023-06-29T09:49:51.096Z,22.42
2023-06-29T09:52:20.405Z,22.70
2023-06-29T09:54:52.298Z,22.79
2023-06-29T09:57:23.208Z,22.90
2023-06-29T09:59:52.066Z,22.98
2023-06-29T10:02:20.625Z,23.11
2023-06-29T10:04:49.748Z,23.11
2023-06-29T10:07:20.534Z,23.01
2023-06-29T10:09:50.546Z,22.99
2023-06-29T10:12:23.406Z,23.02
2023-06-29T10:14:53.168Z,23.02
2023-06-29T10:17:26.976Z,23.09
2023-06-29T10:19:56.480Z,23.09
2023-06-29T10:22:27.844Z,23.07
2023-06-29T10:25:00.340Z,23.08
2023-06-29T10:27:30.994Z,23.06
2023-06-29T10:30:03.779Z,23.05
2023-06-29T10:32:34.147Z,22.94
2023-06-29T10:35:13.762Z,22.89
2023-06-29T10:37:47.352Z,22.88
2023-06-29T10:40:21.488Z,22.87
2023-06-29T10:42:54.501Z,22.88
2023-06-29T10:45:22.581Z,22.93
2023-06-29T10:47:56.804Z,22.91
2023-06-29T10:50:32.249Z,22.97
2023-06-29T10:53:01.939Z,23.04
2023-06-29T10:55:40.493Z,23.06
2023-06-29T10:58:23.748Z,23.10
2023-06-29T11:00:53.802Z,23.04
2023-06-29T11:03:23.842Z,22.89
2023-06-29T11:05:54.126Z,22.77
2023-06-29T11:08:23.758Z,22.65
2023-06-29T11:10:52.984Z,22.65
2023-06-29T11:13:22.324Z,22.60
2023-06-29T11:15:57.769Z,22.56
2023-06-29T11:18:31.951Z,22.50
2023-06-29T11:21:03.430Z,22.42
2023-06-29T11:23:31.492Z,22.44
2023-06-29T11:26:03.731Z,22.45
2023-06-29T11:28:33.759Z,22.45
2023-06-29T11:31:01.975Z,22.49
2023-06-29T11:36:31.452Z,22.63
2023-06-29T11:39:11.002Z,22.53
2023-06-29T11:41:40.471Z,22.40
2023-06-29T11:44:11.609Z,22.35
2023-06-29T11:46:46.675Z,22.30
2023-06-29T11:49:23.066Z,22.25
2023-06-29T11:51:52.158Z,22.20
2023-06-29T11:54:20.631Z,22.19
2023-06-29T11:56:49.188Z,22.13
2023-06-29T11:59:17.460Z,22.05
2023-06-29T12:01:45.876Z,21.96
2023-06-29T12:04:17.092Z,22.04
2023-06-29T12:06:57.261Z,22.19
2023-06-29T12:09:36.514Z,22.38
2023-06-29T12:12:05.833Z,22.55
2023-06-29T12:14:34.616Z,22.64
2023-06-29T12:19:35.977Z,23.03
2023-06-29T12:22:13.544Z,23.02
2023-06-29T12:24:41.686Z,23.15
2023-06-29T12:27:10.052Z,23.31
2023-06-29T12:29:39.909Z,23.35
2023-06-29T12:32:08.723Z,23.52
2023-06-29T12:34:36.725Z,23.67
2023-06-29T12:37:04.889Z,23.64
2023-06-29T12:39:32.722Z,23.60
2023-06-29T12:42:01.508Z,23.52
2023-06-29T12:44:29.674Z,23.33
2023-06-29T12:46:57.795Z,23.08
2023-06-29T12:49:27.814Z,22.88
2023-06-29T12:51:56.072Z,22.78
2023-06-29T12:54:24.034Z,22.67
2023-06-29T12:56:52.041Z,22.53
2023-06-29T12:59:20.068Z,22.45
2023-06-29T13:01:47.996Z,22.49
2023-06-29T13:04:16.395Z,22.44
2023-06-29T13:06:44.388Z,22.39
2023-06-29T13:09:12.380Z,22.27
2023-06-29T13:11:41.800Z,22.21
2023-06-29T13:14:09.829Z,22.22
2023-06-29T13:16:37.941Z,22.11
2023-06-29T13:19:05.862Z,22.01
2023-06-29T13:21:36.096Z,22.01
2023-06-29T13:24:04.569Z,22.01
2023-06-29T13:26:32.547Z,22.02
2023-06-29T13:29:00.623Z,22.08
2023-06-29T13:31:28.711Z,22.16
2023-06-29T13:33:57.845Z,22.25
2023-06-29T13:36:25.779Z,22.34
2023-06-29T13:38:53.957Z,22.48
2023-06-29T13:41:45.196Z,22.63
2023-06-29T13:44:14.238Z,22.82
2023-06-29T13:46:42.913Z,23.06
2023-06-29T13:49:10.852Z,23.28
2023-06-29T13:51:38.868Z,23.35
2023-06-29T13:54:07.464Z,23.43
2023-06-29T13:56:38.836Z,23.53
2023-06-29T13:59:09.841Z,23.68
2023-06-29T14:01:40.216Z,23.88
2023-06-29T14:04:10.022Z,24.01
2023-06-29T14:06:43.742Z,24.06
2023-06-29T14:09:13.028Z,24.02
2023-06-29T14:11:41.979Z,24.09
2023-06-29T14:14:10.387Z,24.25
2023-06-29T14:16:38.577Z,24.25
2023-06-29T14:19:06.587Z,24.23
2023-06-29T14:21:34.568Z,24.17
2023-06-29T14:24:02.528Z,23.95
2023-06-29T14:26:30.473Z,23.78
2023-06-29T14:28:58.368Z,23.60
2023-06-29T14:31:26.483Z,23.42
2023-06-29T14:33:55.852Z,23.19
2023-06-29T14:36:23.969Z,23.06
2023-06-29T14:38:53.114Z,23.11
2023-06-29T14:41:21.248Z,23.09
2023-06-29T14:43:49.413Z,23.05
2023-06-29T14:46:17.702Z,22.94
2023-06-29T14:48:45.854Z,22.79
2023-06-29T14:51:13.779Z,22.67
2023-06-29T14:53:42.094Z,22.73
2023-06-29T14:56:11.867Z,22.72
2023-06-29T14:58:40.511Z,22.62
2023-06-29T15:01:08.885Z,22.55
2023-06-29T15:03:38.861Z,22.55
2023-06-29T15:06:07.142Z,22.61
2023-06-29T15:08:35.340Z,22.61
2023-06-29T15:11:03.505Z,22.74
2023-06-29T15:13:31.417Z,22.96
2023-06-29T15:15:59.665Z,23.17
2023-06-29T15:18:28.086Z,23.27
2023-06-29T15:20:56.374Z,23.36
2023-06-29T15:23:24.338Z,23.48
2023-06-29T15:25:52.586Z,23.59
2023-06-29T15:28:21.498Z,23.67
2023-06-29T15:30:53.808Z,23.76
2023-06-29T15:33:22.645Z,23.76
2023-06-29T15:35:50.629Z,23.72
2023-06-29T15:38:19.757Z,23.75
2023-06-29T15:40:49.125Z,23.73
2023-06-29T15:43:17.316Z,23.69
2023-06-29T15:45:45.535Z,23.64
2023-06-29T15:48:15.847Z,23.58
2023-06-29T15:50:45.672Z,23.57
2023-06-29T15:53:13.892Z,23.57
2023-06-29T15:55:42.068Z,23.50
2023-06-29T15:58:10.233Z,23.41
2023-06-29T16:00:39.956Z,23.42
2023-06-29T16:03:08.287Z,23.45
2023-06-29T16:05:36.902Z,23.42
2023-06-29T16:08:05.196Z,23.29
2023-06-29T16:10:34.394Z,23.09
2023-06-29T16:13:02.439Z,23.03
2023-06-29T16:15:30.771Z,23.04
2023-06-29T16:17:59.207Z,23.04
2023-06-29T16:20:27.233Z,23.02
2023-06-29T16:22:55.201Z,22.96
2023-06-29T16:25:24.640Z,22.92
2023-06-29T16:27:53.342Z,22.87
2023-06-29T16:30:22.299Z,22.74
2023-06-29T16:32:50.346Z,22.61
2023-06-29T16:35:18.533Z,22.53
2023-06-29T16:37:47.665Z,22.47
2023-06-29T16:40:15.754Z,22.47
2023-06-29T16:42:43.737Z,22.51
2023-06-29T16:45:11.969Z,22.47
2023-06-29T16:47:40.261Z,22.40
2023-06-29T16:50:08.718Z,22.34
2023-06-29T16:52:36.777Z,22.28
2023-06-29T16:55:05.305Z,22.26
2023-06-29T16:57:33.480Z,22.25
2023-06-29T17:00:01.956Z,22.22
2023-06-29T17:02:30.336Z,22.16
2023-06-29T17:04:58.485Z,22.07
2023-06-29T17:07:26.804Z,22.00
2023-06-29T17:09:54.814Z,21.97
2023-06-29T17:12:23.018Z,21.94
2023-06-29T17:14:51.140Z,21.88
2023-06-29T17:17:19.327Z,21.79
2023-06-29T17:19:50.149Z,21.69
2023-06-29T17:22:18.599Z,21.61
2023-06-29T17:24:46.633Z,21.55
2023-06-29T17:27:14.682Z,21.50
2023-06-29T17:29:43.084Z,21.46
2023-06-29T17:32:11.044Z,21.39
2023-06-29T17:34:39.177Z,21.32
2023-06-29T17:37:08.160Z,21.24
2023-06-29T17:39:36.251Z,21.16
2023-06-29T17:42:04.448Z,21.07
2023-06-29T17:44:32.405Z,21.02
2023-06-29T17:47:00.398Z,21.03
2023-06-29T17:49:28.551Z,20.98
2023-06-29T17:51:56.564Z,20.88
2023-06-29T17:54:24.513Z,20.77
2023-06-29T17:56:52.548Z,20.68
2023-06-29T17:59:20.509Z,20.56
2023-06-29T18:01:48.602Z,20.44
2023-06-29T18:04:16.737Z,20.33
2023-06-29T18:06:44.815Z,20.22
2023-06-29T18:09:15.013Z,20.10
2023-06-29T18:11:43.411Z,20.02
2023-06-29T18:14:11.480Z,19.93
2023-06-29T18:16:40.400Z,19.83
2023-06-29T18:19:08.521Z,19.71
2023-06-29T18:21:39.417Z,19.59
2023-06-29T18:24:08.651Z,19.49
2023-06-29T18:26:36.661Z,19.39
2023-06-29T18:29:04.760Z,19.30
2023-06-29T18:31:32.997Z,19.21
2023-06-29T18:34:01.559Z,19.12
2023-06-29T18:36:29.863Z,19.03
2023-06-29T18:38:58.175Z,18.92
2023-06-29T18:41:34.873Z,18.79
2023-06-29T18:44:04.300Z,18.59
2023-06-29T18:46:38.856Z,18.38
2023-06-29T18:49:07.831Z,18.17
2023-06-29T18:51:36.516Z,18.01
2023-06-29T18:54:04.665Z,17.85
2023-06-29T18:56:32.529Z,17.71
2023-06-29T18:59:00.591Z,17.56
2023-06-29T19:01:28.834Z,17.42
2023-06-29T19:03:56.947Z,17.28
2023-06-29T19:06:24.991Z,17.18
2023-06-29T19:08:53.250Z,17.12
2023-06-29T19:11:21.248Z,17.06
2023-06-29T19:13:49.193Z,17.00
2023-06-29T19:16:17.230Z,16.93
2023-06-29T19:18:45.328Z,16.83
2023-06-29T19:21:14.729Z,16.72
2023-06-29T19:23:44.938Z,16.61
2023-06-29T19:26:13.395Z,16.55
2023-06-29T19:28:41.746Z,16.50
2023-06-29T19:31:09.840Z,16.45
2023-06-29T19:33:39.296Z,16.43
2023-06-29T19:36:07.469Z,16.38
2023-06-29T19:38:35.464Z,16.31
2023-06-29T19:41:04.043Z,16.22
2023-06-29T19:43:32.214Z,16.13
2023-06-29T19:46:00.362Z,16.06
2023-06-29T19:48:30.355Z,15.94
2023-06-29T19:50:58.333Z,15.87
2023-06-29T19:53:26.382Z,15.80
2023-06-29T19:55:56.174Z,15.70
2023-06-29T19:58:24.558Z,15.60
2023-06-29T20:00:52.611Z,15.47
2023-06-29T20:03:21.250Z,15.37
2023-06-29T20:05:51.010Z,15.28
2023-06-29T20:08:21.017Z,15.22
2023-06-29T20:10:49.988Z,15.15
2023-06-29T20:13:18.124Z,15.10
2023-06-29T20:15:46.950Z,15.06
2023-06-29T20:18:15.379Z,14.99
2023-06-29T20:20:43.571Z,14.94
2023-06-29T20:23:12.078Z,14.85
2023-06-29T20:25:40.346Z,14.72
2023-06-29T20:28:08.450Z,14.60
2023-06-29T20:30:36.384Z,14.56
2023-06-29T20:33:04.597Z,14.55
2023-06-29T20:35:32.815Z,14.56
2023-06-29T20:38:01.112Z,14.63
2023-06-29T20:40:29.215Z,14.71
2023-06-29T20:43:00.227Z,14.75
2023-06-29T20:45:28.674Z,14.80
2023-06-29T20:47:57.825Z,14.85
2023-06-29T20:50:26.562Z,14.85
2023-06-29T20:52:54.752Z,14.81
2023-06-29T20:55:23.113Z,14.78
2023-06-29T20:57:51.142Z,14.74
2023-06-29T21:00:19.810Z,14.73
2023-06-29T21:02:48.006Z,14.72
2023-06-29T21:05:17.875Z,14.74
2023-06-29T21:07:46.196Z,14.76
2023-06-29T21:10:14.645Z,14.74
2023-06-29T21:12:43.188Z,14.73
2023-06-29T21:15:12.106Z,14.69
2023-06-29T21:17:40.284Z,14.62
2023-06-29T21:20:09.123Z,14.53
2023-06-29T21:22:37.941Z,14.42
2023-06-29T21:25:06.759Z,14.26
2023-06-29T21:27:36.640Z,14.13
2023-06-29T21:30:05.580Z,14.04
2023-06-29T21:32:33.755Z,13.98
2023-06-29T21:35:02.280Z,13.96
2023-06-29T21:37:30.976Z,13.95
2023-06-29T21:39:58.942Z,13.93
2023-06-29T21:42:27.462Z,13.92
2023-06-29T21:44:55.401Z,13.90
2023-06-29T21:47:23.411Z,13.89
2023-06-29T21:49:51.818Z,13.87
2023-06-29T21:52:19.798Z,13.84
2023-06-29T21:54:47.681Z,13.83
2023-06-29T21:57:15.837Z,13.80
2023-06-29T21:59:43.815Z,13.72
2023-06-29T22:02:12.047Z,13.64
2023-06-29T22:04:40.254Z,13.59
2023-06-29T22:09:40.491Z,13.47
2023-06-29T22:12:12.242Z,13.44
2023-06-29T22:14:40.629Z,13.40
2023-06-29T22:17:08.711Z,13.41
2023-06-29T22:19:37.984Z,13.43
2023-06-29T22:22:07.776Z,13.52
2023-06-29T22:24:35.697Z,13.58
2023-06-29T22:27:04.721Z,13.58
2023-06-29T22:29:32.682Z,13.57
2023-06-29T22:32:00.930Z,13.57
2023-06-29T22:34:29.184Z,13.60
2023-06-29T22:36:57.225Z,13.60
2023-06-29T22:39:25.309Z,13.53
2023-06-29T22:41:53.147Z,13.40
2023-06-29T22:44:21.103Z,13.36
2023-06-29T22:46:49.352Z,13.27
2023-06-29T22:49:17.816Z,13.14
2023-06-29T22:51:45.825Z,13.01
2023-06-29T22:54:13.796Z,12.90
2023-06-29T22:56:41.982Z,12.87
2023-06-29T22:59:11.231Z,12.89
2023-06-29T23:01:41.660Z,12.90
2023-06-29T23:04:10.012Z,12.90
2023-06-29T23:06:41.813Z,12.86
2023-06-29T23:09:10.726Z,12.85
2023-06-29T23:11:40.807Z,12.91
2023-06-29T23:14:15.416Z,12.96
2023-06-29T23:16:44.041Z,12.92
2023-06-29T23:19:12.263Z,12.83
2023-06-29T23:21:40.613Z,12.75
2023-06-29T23:24:10.090Z,12.73
2023-06-29T23:26:38.137Z,12.68
2023-06-29T23:29:06.041Z,12.63
2023-06-29T23:31:35.780Z,12.69
2023-06-29T23:34:04.631Z,12.78
2023-06-29T23:36:33.058Z,12.82
2023-06-29T23:39:01.149Z,12.84
2023-06-29T23:41:29.601Z,12.86
2023-06-29T23:44:07.570Z,12.92
2023-06-29T23:46:46.720Z,12.93
2023-06-29T23:49:19.886Z,12.84
2023-06-29T23:51:48.868Z,12.78
2023-06-29T23:54:17.741Z,12.74
2023-06-29T23:56:46.278Z,12.62
2023-06-29T23:59:14.309Z,12.46
